sensor_id;sensor_type;location;lat;lon;timestamp;pressure;altitude;pressure_sealevel;temperature
78905;BMP280;68291;49.602;8.722;2023-09-08T00:01:29;99715.53;;;18.57
78905;BMP280;68291;49.602;8.722;2023-09-08T00:04:11;99732.25;;;18.55
78905;BMP280;68291;49.602;8.722;2023-09-08T00:07:27;99718.47;;;18.53
78905;BMP280;68291;49.602;8.722;2023-09-08T00:11:04;99724.75;;;18.51
78905;BMP280;68291;49.602;8.722;2023-09-08T00:13:56;99714.22;;;18.52
78905;BMP280;68291;49.602;8.722;2023-09-08T00:16:57;99722.06;;;18.52
78905;BMP280;68291;49.602;8.722;2023-09-08T00:19:41;99729.16;;;18.50
78905;BMP280;68291;49.602;8.722;2023-09-08T00:22:26;99717.28;;;18.46
78905;BMP280;68291;49.602;8.722;2023-09-08T00:25:12;99721.66;;;18.46
78905;BMP280;68291;49.602;8.722;2023-09-08T00:28:01;99721.19;;;18.41
78905;BMP280;68291;49.602;8.722;2023-09-08T00:30:35;99712.50;;;18.40
78905;BMP280;68291;49.602;8.722;2023-09-08T00:33:34;99710.38;;;18.34
78905;BMP280;68291;49.602;8.722;2023-09-08T00:36:23;99705.72;;;18.27
78905;BMP280;68291;49.602;8.722;2023-09-08T00:39:28;99710.09;;;18.26
78905;BMP280;68291;49.602;8.722;2023-09-08T00:42:14;99709.28;;;18.26
78905;BMP280;68291;49.602;8.722;2023-09-08T00:45:15;99712.22;;;18.21
78905;BMP280;68291;49.602;8.722;2023-09-08T00:48:22;99707.44;;;18.16
78905;BMP280;68291;49.602;8.722;2023-09-08T00:51:10;99702.66;;;18.10
78905;BMP280;68291;49.602;8.722;2023-09-08T00:54:03;99706.94;;;18.11
78905;BMP280;68291;49.602;8.722;2023-09-08T00:57:07;99699.00;;;18.12
78905;BMP280;68291;49.602;8.722;2023-09-08T00:59:56;99699.22;;;18.09
78905;BMP280;68291;49.602;8.722;2023-09-08T01:03:28;99699.03;;;18.00
78905;BMP280;68291;49.602;8.722;2023-09-08T01:06:33;99701.03;;;17.96
78905;BMP280;68291;49.602;8.722;2023-09-08T01:09:39;99702.69;;;17.97
78905;BMP280;68291;49.602;8.722;2023-09-08T01:12:24;99705.50;;;17.94
78905;BMP280;68291;49.602;8.722;2023-09-08T01:15:10;99696.88;;;17.94
78905;BMP280;68291;49.602;8.722;2023-09-08T01:17:55;99702.09;;;17.94
78905;BMP280;68291;49.602;8.722;2023-09-08T01:25:19;99703.34;;;17.88
78905;BMP280;68291;49.602;8.722;2023-09-08T01:28:11;99702.63;;;17.86
78905;BMP280;68291;49.602;8.722;2023-09-08T01:30:54;99710.66;;;17.83
78905;BMP280;68291;49.602;8.722;2023-09-08T01:33:51;99702.22;;;17.80
78905;BMP280;68291;49.602;8.722;2023-09-08T01:36:38;99706.50;;;17.81
78905;BMP280;68291;49.602;8.722;2023-09-08T01:39:24;99710.75;;;17.82
78905;BMP280;68291;49.602;8.722;2023-09-08T01:42:06;99706.50;;;17.81
78905;BMP280;68291;49.602;8.722;2023-09-08T01:45:21;99698.06;;;17.78
78905;BMP280;68291;49.602;8.722;2023-09-08T01:48:47;99698.41;;;17.73
78905;BMP280;68291;49.602;8.722;2023-09-08T01:51:38;99700.50;;;17.68
78905;BMP280;68291;49.602;8.722;2023-09-08T01:54:33;99703.75;;;17.59
78905;BMP280;68291;49.602;8.722;2023-09-08T01:57:49;99693.03;;;17.51
78905;BMP280;68291;49.602;8.722;2023-09-08T02:00:50;99698.25;;;17.51
78905;BMP280;68291;49.602;8.722;2023-09-08T02:03:34;99694.81;;;17.51
78905;BMP280;68291;49.602;8.722;2023-09-08T02:06:15;99695.31;;;17.56
78905;BMP280;68291;49.602;8.722;2023-09-08T02:09:02;99703.03;;;17.57
78905;BMP280;68291;49.602;8.722;2023-09-08T02:11:45;99700.03;;;17.51
78905;BMP280;68291;49.602;8.722;2023-09-08T02:14:34;99698.69;;;17.46
78905;BMP280;68291;49.602;8.722;2023-09-08T02:17:35;99701.09;;;17.36
78905;BMP280;68291;49.602;8.722;2023-09-08T02:20:30;99696.22;;;17.32
78905;BMP280;68291;49.602;8.722;2023-09-08T02:23:40;99696.72;;;17.24
78905;BMP280;68291;49.602;8.722;2023-09-08T02:26:20;99696.84;;;17.23
78905;BMP280;68291;49.602;8.722;2023-09-08T02:29:28;99694.34;;;17.21
78905;BMP280;68291;49.602;8.722;2023-09-08T02:32:39;99694.97;;;17.25
78905;BMP280;68291;49.602;8.722;2023-09-08T02:35:40;99694.53;;;17.31
78905;BMP280;68291;49.602;8.722;2023-09-08T02:38:39;99692.88;;;17.30
78905;BMP280;68291;49.602;8.722;2023-09-08T02:41:26;99691.00;;;17.32
78905;BMP280;68291;49.602;8.722;2023-09-08T02:44:13;99688.41;;;17.32
78905;BMP280;68291;49.602;8.722;2023-09-08T02:47:10;99689.31;;;17.31
78905;BMP280;68291;49.602;8.722;2023-09-08T02:50:34;99684.13;;;17.31
78905;BMP280;68291;49.602;8.722;2023-09-08T02:53:35;99690.28;;;17.30
78905;BMP280;68291;49.602;8.722;2023-09-08T02:56:15;99685.31;;;17.27
78905;BMP280;68291;49.602;8.722;2023-09-08T02:59:16;99692.25;;;17.26
78905;BMP280;68291;49.602;8.722;2023-09-08T03:02:13;99689.88;;;17.23
78905;BMP280;68291;49.602;8.722;2023-09-08T03:04:57;99692.56;;;17.22
78905;BMP280;68291;49.602;8.722;2023-09-08T03:07:50;99689.16;;;17.21
78905;BMP280;68291;49.602;8.722;2023-09-08T03:10:23;99692.06;;;17.17
78905;BMP280;68291;49.602;8.722;2023-09-08T03:13:11;99687.97;;;17.13
78905;BMP280;68291;49.602;8.722;2023-09-08T03:16:10;99691.94;;;17.06
78905;BMP280;68291;49.602;8.722;2023-09-08T03:19:05;99702.03;;;16.98
78905;BMP280;68291;49.602;8.722;2023-09-08T03:21:59;99705.59;;;16.97
78905;BMP280;68291;49.602;8.722;2023-09-08T03:24:42;99702.75;;;17.00
78905;BMP280;68291;49.602;8.722;2023-09-08T03:27:56;99704.63;;;16.98
78905;BMP280;68291;49.602;8.722;2023-09-08T03:30:37;99699.75;;;16.94
78905;BMP280;68291;49.602;8.722;2023-09-08T03:33:36;99703.91;;;16.96
78905;BMP280;68291;49.602;8.722;2023-09-08T03:36:40;99709.97;;;16.97
78905;BMP280;68291;49.602;8.722;2023-09-08T03:40:08;99709.72;;;16.87
78905;BMP280;68291;49.602;8.722;2023-09-08T03:43:11;99709.22;;;16.82
78905;BMP280;68291;49.602;8.722;2023-09-08T03:46:20;99705.38;;;16.76
78905;BMP280;68291;49.602;8.722;2023-09-08T03:49:22;99702.13;;;16.72
78905;BMP280;68291;49.602;8.722;2023-09-08T03:52:20;99711.50;;;16.75
78905;BMP280;68291;49.602;8.722;2023-09-08T03:55:25;99703.50;;;16.78
78905;BMP280;68291;49.602;8.722;2023-09-08T03:58:11;99702.63;;;16.77
78905;BMP280;68291;49.602;8.722;2023-09-08T04:00:55;99712.94;;;16.78
78905;BMP280;68291;49.602;8.722;2023-09-08T04:03:44;99708.06;;;16.74
78905;BMP280;68291;49.602;8.722;2023-09-08T04:06:15;99720.97;;;16.76
78905;BMP280;68291;49.602;8.722;2023-09-08T04:09:05;99715.78;;;16.76
78905;BMP280;68291;49.602;8.722;2023-09-08T04:12:41;99713.88;;;16.65
78905;BMP280;68291;49.602;8.722;2023-09-08T04:15:51;99716.28;;;16.56
78905;BMP280;68291;49.602;8.722;2023-09-08T04:18:34;99717.41;;;16.52
78905;BMP280;68291;49.602;8.722;2023-09-08T04:21:25;99713.84;;;16.53
78905;BMP280;68291;49.602;8.722;2023-09-08T04:24:35;99710.03;;;16.58
78905;BMP280;68291;49.602;8.722;2023-09-08T04:27:15;99721.34;;;16.57
78905;BMP280;68291;49.602;8.722;2023-09-08T04:29:52;99725.72;;;16.57
78905;BMP280;68291;49.602;8.722;2023-09-08T04:32:46;99719.69;;;16.56
78905;BMP280;68291;49.602;8.722;2023-09-08T04:36:03;99729.25;;;16.56
78905;BMP280;68291;49.602;8.722;2023-09-08T04:39:00;99725.06;;;16.53
78905;BMP280;68291;49.602;8.722;2023-09-08T04:42:15;99733.91;;;16.51
78905;BMP280;68291;49.602;8.722;2023-09-08T04:45:45;99738.28;;;16.50
78905;BMP280;68291;49.602;8.722;2023-09-08T04:48:19;99737.38;;;16.51
78905;BMP280;68291;49.602;8.722;2023-09-08T04:51:15;99734.84;;;16.50
78905;BMP280;68291;49.602;8.722;2023-09-08T04:54:18;99743.41;;;16.52
78905;BMP280;68291;49.602;8.722;2023-09-08T04:57:14;99740.06;;;16.50
78905;BMP280;68291;49.602;8.722;2023-09-08T04:59:58;99734.84;;;16.50
78905;BMP280;68291;49.602;8.722;2023-09-08T05:03:29;99745.44;;;16.47
78905;BMP280;68291;49.602;8.722;2023-09-08T05:06:03;99750.47;;;16.50
78905;BMP280;68291;49.602;8.722;2023-09-08T05:08:53;99751.19;;;16.52
78905;BMP280;68291;49.602;8.722;2023-09-08T05:11:54;99757.53;;;16.48
78905;BMP280;68291;49.602;8.722;2023-09-08T05:14:52;99750.63;;;16.47
78905;BMP280;68291;49.602;8.722;2023-09-08T05:17:41;99753.16;;;16.48
78905;BMP280;68291;49.602;8.722;2023-09-08T05:20:31;99755.84;;;16.47
78905;BMP280;68291;49.602;8.722;2023-09-08T05:23:30;99751.50;;;16.47
78905;BMP280;68291;49.602;8.722;2023-09-08T05:26:31;99757.53;;;16.48
78905;BMP280;68291;49.602;8.722;2023-09-08T05:29:22;99754.91;;;16.48
78905;BMP280;68291;49.602;8.722;2023-09-08T05:32:36;99752.31;;;16.48
78905;BMP280;68291;49.602;8.722;2023-09-08T05:36:10;99753.97;;;16.49
78905;BMP280;68291;49.602;8.722;2023-09-08T05:38:52;99757.13;;;16.54
78905;BMP280;68291;49.602;8.722;2023-09-08T05:41:54;99753.41;;;16.58
78905;BMP280;68291;49.602;8.722;2023-09-08T05:44:27;99759.00;;;16.64
78905;BMP280;68291;49.602;8.722;2023-09-08T05:47:16;99768.19;;;16.70
78905;BMP280;68291;49.602;8.722;2023-09-08T05:49:57;99755.69;;;16.75
78905;BMP280;68291;49.602;8.722;2023-09-08T05:53:28;99765.06;;;16.77
78905;BMP280;68291;49.602;8.722;2023-09-08T05:56:09;99765.47;;;16.83
78905;BMP280;68291;49.602;8.722;2023-09-08T05:59:06;99765.09;;;16.89
78905;BMP280;68291;49.602;8.722;2023-09-08T06:02:01;99765.31;;;16.99
78905;BMP280;68291;49.602;8.722;2023-09-08T06:04:52;99763.75;;;17.09
78905;BMP280;68291;49.602;8.722;2023-09-08T06:07:58;99757.03;;;17.18
78905;BMP280;68291;49.602;8.722;2023-09-08T06:11:16;99759.81;;;17.28
78905;BMP280;68291;49.602;8.722;2023-09-08T06:14:04;99762.75;;;17.36
78905;BMP280;68291;49.602;8.722;2023-09-08T06:16:46;99757.81;;;17.44
78905;BMP280;68291;49.602;8.722;2023-09-08T06:19:21;99752.00;;;17.52
78905;BMP280;68291;49.602;8.722;2023-09-08T06:22:31;99751.38;;;17.61
78905;BMP280;68291;49.602;8.722;2023-09-08T06:25:17;99753.41;;;17.69
78905;BMP280;68291;49.602;8.722;2023-09-08T06:28:24;99758.09;;;17.76
78905;BMP280;68291;49.602;8.722;2023-09-08T06:31:35;99752.34;;;17.83
78905;BMP280;68291;49.602;8.722;2023-09-08T06:34:31;99747.31;;;17.93
78905;BMP280;68291;49.602;8.722;2023-09-08T06:37:47;99745.81;;;18.01
78905;BMP280;68291;49.602;8.722;2023-09-08T06:40:33;99751.25;;;18.11
78905;BMP280;68291;49.602;8.722;2023-09-08T06:43:10;99746.31;;;18.18
78905;BMP280;68291;49.602;8.722;2023-09-08T06:46:22;99749.91;;;18.28
78905;BMP280;68291;49.602;8.722;2023-09-08T06:49:01;99739.63;;;18.38
78905;BMP280;68291;49.602;8.722;2023-09-08T06:52:01;99751.91;;;18.48
78905;BMP280;68291;49.602;8.722;2023-09-08T06:55:00;99750.28;;;18.58
78905;BMP280;68291;49.602;8.722;2023-09-08T06:57:52;99748.66;;;18.68
78905;BMP280;68291;49.602;8.722;2023-09-08T07:00:38;99738.13;;;18.80
78905;BMP280;68291;49.602;8.722;2023-09-08T07:03:28;99748.50;;;18.92
78905;BMP280;68291;49.602;8.722;2023-09-08T07:06:40;99750.91;;;19.06
78905;BMP280;68291;49.602;8.722;2023-09-08T07:09:42;99746.31;;;19.21
78905;BMP280;68291;49.602;8.722;2023-09-08T07:12:43;99746.69;;;19.38
78905;BMP280;68291;49.602;8.722;2023-09-08T07:15:30;99738.38;;;19.55
78905;BMP280;68291;49.602;8.722;2023-09-08T07:18:06;99735.41;;;19.70
78905;BMP280;68291;49.602;8.722;2023-09-08T07:20:47;99742.88;;;19.85
78905;BMP280;68291;49.602;8.722;2023-09-08T07:23:25;99745.22;;;19.99
78905;BMP280;68291;49.602;8.722;2023-09-08T07:26:29;99736.88;;;20.16
78905;BMP280;68291;49.602;8.722;2023-09-08T07:29:42;99732.28;;;20.39
78905;BMP280;68291;49.602;8.722;2023-09-08T07:32:19;99733.38;;;20.57
78905;BMP280;68291;49.602;8.722;2023-09-08T07:35:18;99730.81;;;20.77
78905;BMP280;68291;49.602;8.722;2023-09-08T07:38:23;99729.28;;;20.95
78905;BMP280;68291;49.602;8.722;2023-09-08T07:41:05;99733.13;;;21.11
78905;BMP280;68291;49.602;8.722;2023-09-08T07:43:47;99720.09;;;21.30
78905;BMP280;68291;49.602;8.722;2023-09-08T07:46:43;99723.41;;;21.52
78905;BMP280;68291;49.602;8.722;2023-09-08T07:49:28;99722.25;;;21.75
78905;BMP280;68291;49.602;8.722;2023-09-08T07:52:12;99727.53;;;21.94
78905;BMP280;68291;49.602;8.722;2023-09-08T07:55:20;99728.53;;;22.11
78905;BMP280;68291;49.602;8.722;2023-09-08T07:57:58;99727.09;;;22.28
78905;BMP280;68291;49.602;8.722;2023-09-08T08:00:46;99729.72;;;22.46
78905;BMP280;68291;49.602;8.722;2023-09-08T08:03:51;99725.44;;;22.64
78905;BMP280;68291;49.602;8.722;2023-09-08T08:06:39;99719.47;;;22.81
78905;BMP280;68291;49.602;8.722;2023-09-08T08:09:38;99723.31;;;22.96
78905;BMP280;68291;49.602;8.722;2023-09-08T08:13:06;99721.09;;;23.10
78905;BMP280;68291;49.602;8.722;2023-09-08T08:15:53;99710.66;;;23.27
78905;BMP280;68291;49.602;8.722;2023-09-08T08:18:52;99726.63;;;23.52
78905;BMP280;68291;49.602;8.722;2023-09-08T08:21:48;99723.63;;;23.74
78905;BMP280;68291;49.602;8.722;2023-09-08T08:25:05;99727.81;;;23.94
78905;BMP280;68291;49.602;8.722;2023-09-08T08:28:17;99731.59;;;24.08
78905;BMP280;68291;49.602;8.722;2023-09-08T08:31:12;99727.94;;;24.19
78905;BMP280;68291;49.602;8.722;2023-09-08T08:34:14;99723.22;;;24.40
78905;BMP280;68291;49.602;8.722;2023-09-08T08:37:05;99720.75;;;24.55
78905;BMP280;68291;49.602;8.722;2023-09-08T08:40:15;99725.66;;;24.68
78905;BMP280;68291;49.602;8.722;2023-09-08T08:43:23;99723.59;;;24.79
78905;BMP280;68291;49.602;8.722;2023-09-08T08:46:16;99723.25;;;24.91
78905;BMP280;68291;49.602;8.722;2023-09-08T08:49:06;99719.34;;;25.03
78905;BMP280;68291;49.602;8.722;2023-09-08T08:51:56;99710.38;;;25.13
78905;BMP280;68291;49.602;8.722;2023-09-08T08:54:41;99711.09;;;25.23
78905;BMP280;68291;49.602;8.722;2023-09-08T08:57:17;99706.88;;;25.38
78905;BMP280;68291;49.602;8.722;2023-09-08T09:00:10;99712.53;;;25.51
78905;BMP280;68291;49.602;8.722;2023-09-08T09:03:21;99713.28;;;25.61
78905;BMP280;68291;49.602;8.722;2023-09-08T09:06:17;99720.09;;;25.71
78905;BMP280;68291;49.602;8.722;2023-09-08T09:09:28;99716.34;;;25.81
78905;BMP280;68291;49.602;8.722;2023-09-08T09:12:17;99709.94;;;25.92
78905;BMP280;68291;49.602;8.722;2023-09-08T09:15:39;99711.63;;;26.01
78905;BMP280;68291;49.602;8.722;2023-09-08T09:18:13;99709.66;;;26.11
78905;BMP280;68291;49.602;8.722;2023-09-08T09:21:01;99716.00;;;26.25
78905;BMP280;68291;49.602;8.722;2023-09-08T09:23:41;99716.50;;;26.37
78905;BMP280;68291;49.602;8.722;2023-09-08T09:26:36;99706.47;;;26.48
78905;BMP280;68291;49.602;8.722;2023-09-08T09:29:51;99704.63;;;26.56
78905;BMP280;68291;49.602;8.722;2023-09-08T09:32:40;99712.41;;;26.66
78905;BMP280;68291;49.602;8.722;2023-09-08T09:35:44;99709.59;;;26.75
78905;BMP280;68291;49.602;8.722;2023-09-08T09:38:36;99708.63;;;26.84
78905;BMP280;68291;49.602;8.722;2023-09-08T09:41:31;99715.56;;;26.93
78905;BMP280;68291;49.602;8.722;2023-09-08T09:44:20;99711.28;;;27.00
78905;BMP280;68291;49.602;8.722;2023-09-08T09:47:10;99717.38;;;27.08
78905;BMP280;68291;49.602;8.722;2023-09-08T09:50:06;99711.91;;;27.18
78905;BMP280;68291;49.602;8.722;2023-09-08T09:52:51;99712.88;;;27.24
78905;BMP280;68291;49.602;8.722;2023-09-08T09:55:36;99705.91;;;27.31
78905;BMP280;68291;49.602;8.722;2023-09-08T09:58:41;99705.22;;;27.37
78905;BMP280;68291;49.602;8.722;2023-09-08T10:01:28;99706.22;;;27.44
78905;BMP280;68291;49.602;8.722;2023-09-08T10:04:16;99703.56;;;27.52
78905;BMP280;68291;49.602;8.722;2023-09-08T10:07:10;99699.22;;;27.59
78905;BMP280;68291;49.602;8.722;2023-09-08T10:10:16;99702.84;;;27.66
78905;BMP280;68291;49.602;8.722;2023-09-08T10:13:29;99694.88;;;27.74
78905;BMP280;68291;49.602;8.722;2023-09-08T10:16:19;99695.81;;;27.81
78905;BMP280;68291;49.602;8.722;2023-09-08T10:19:23;99694.16;;;27.88
78905;BMP280;68291;49.602;8.722;2023-09-08T10:22:45;99686.69;;;27.91
78905;BMP280;68291;49.602;8.722;2023-09-08T10:25:21;99692.94;;;27.98
78905;BMP280;68291;49.602;8.722;2023-09-08T10:28:25;99691.16;;;27.98
78905;BMP280;68291;49.602;8.722;2023-09-08T10:31:11;99687.78;;;28.04
78905;BMP280;68291;49.602;8.722;2023-09-08T10:33:52;99688.28;;;28.08
78905;BMP280;68291;49.602;8.722;2023-09-08T10:36:55;99692.69;;;28.15
78905;BMP280;68291;49.602;8.722;2023-09-08T10:40:25;99689.50;;;28.20
78905;BMP280;68291;49.602;8.722;2023-09-08T10:43:12;99686.97;;;28.26
78905;BMP280;68291;49.602;8.722;2023-09-08T10:46:31;99698.72;;;28.31
78905;BMP280;68291;49.602;8.722;2023-09-08T10:49:35;99684.75;;;28.37
78905;BMP280;68291;49.602;8.722;2023-09-08T10:52:38;99689.34;;;28.43
78905;BMP280;68291;49.602;8.722;2023-09-08T10:55:40;99679.50;;;28.52
78905;BMP280;68291;49.602;8.722;2023-09-08T10:58:39;99685.59;;;28.60
78905;BMP280;68291;49.602;8.722;2023-09-08T11:01:30;99682.41;;;28.64
78905;BMP280;68291;49.602;8.722;2023-09-08T11:04:46;99686.06;;;28.63
78905;BMP280;68291;49.602;8.722;2023-09-08T11:08:00;99680.41;;;28.66
78905;BMP280;68291;49.602;8.722;2023-09-08T11:10:45;99681.69;;;28.70
78905;BMP280;68291;49.602;8.722;2023-09-08T11:13:56;99673.22;;;28.75
78905;BMP280;68291;49.602;8.722;2023-09-08T11:17:03;99668.38;;;28.78
78905;BMP280;68291;49.602;8.722;2023-09-08T11:20:09;99680.56;;;28.87
78905;BMP280;68291;49.602;8.722;2023-09-08T11:22:54;99671.50;;;28.96
78905;BMP280;68291;49.602;8.722;2023-09-08T11:25:36;99673.63;;;29.00
78905;BMP280;68291;49.602;8.722;2023-09-08T11:28:18;99670.25;;;29.06
78905;BMP280;68291;49.602;8.722;2023-09-08T11:31:06;99667.34;;;29.16
78905;BMP280;68291;49.602;8.722;2023-09-08T11:33:56;99663.81;;;29.23
78905;BMP280;68291;49.602;8.722;2023-09-08T11:37:08;99657.56;;;29.30
78905;BMP280;68291;49.602;8.722;2023-09-08T11:39:44;99653.81;;;29.39
78905;BMP280;68291;49.602;8.722;2023-09-08T11:42:47;99653.56;;;29.49
78905;BMP280;68291;49.602;8.722;2023-09-08T11:46:10;99649.31;;;29.54
78905;BMP280;68291;49.602;8.722;2023-09-08T11:48:49;99652.88;;;29.61
78905;BMP280;68291;49.602;8.722;2023-09-08T11:51:35;99654.78;;;29.67
78905;BMP280;68291;49.602;8.722;2023-09-08T11:54:14;99654.72;;;29.75
78905;BMP280;68291;49.602;8.722;2023-09-08T11:57:06;99649.50;;;29.81
78905;BMP280;68291;49.602;8.722;2023-09-08T12:00:02;99645.47;;;29.85
78905;BMP280;68291;49.602;8.722;2023-09-08T12:03:58;99649.19;;;29.91
78905;BMP280;68291;49.602;8.722;2023-09-08T12:06:30;99644.41;;;30.00
78905;BMP280;68291;49.602;8.722;2023-09-08T12:09:47;99647.94;;;30.07
78905;BMP280;68291;49.602;8.722;2023-09-08T12:12:30;99635.72;;;30.13
78905;BMP280;68291;49.602;8.722;2023-09-08T12:15:34;99646.25;;;30.21
78905;BMP280;68291;49.602;8.722;2023-09-08T12:18:38;99636.16;;;30.31
78905;BMP280;68291;49.602;8.722;2023-09-08T12:21:55;99626.81;;;30.41
78905;BMP280;68291;49.602;8.722;2023-09-08T12:24:57;99635.31;;;30.51
78905;BMP280;68291;49.602;8.722;2023-09-08T12:27:45;99626.19;;;30.60
78905;BMP280;68291;49.602;8.722;2023-09-08T12:30:39;99616.41;;;30.67
78905;BMP280;68291;49.602;8.722;2023-09-08T12:33:35;99624.91;;;30.76
78905;BMP280;68291;49.602;8.722;2023-09-08T12:36:30;99620.09;;;30.86
78905;BMP280;68291;49.602;8.722;2023-09-08T12:39:33;99622.22;;;30.97
78905;BMP280;68291;49.602;8.722;2023-09-08T12:42:18;99623.69;;;31.06
78905;BMP280;68291;49.602;8.722;2023-09-08T12:45:08;99628.47;;;31.17
78905;BMP280;68291;49.602;8.722;2023-09-08T12:47:50;99624.63;;;31.26
78905;BMP280;68291;49.602;8.722;2023-09-08T12:50:51;99617.34;;;31.34
78905;BMP280;68291;49.602;8.722;2023-09-08T12:53:39;99618.19;;;31.41
78905;BMP280;68291;49.602;8.722;2023-09-08T12:56:45;99618.84;;;31.49
78905;BMP280;68291;49.602;8.722;2023-09-08T12:59:22;99614.56;;;31.61
78905;BMP280;68291;49.602;8.722;2023-09-08T13:02:06;99615.44;;;31.68
78905;BMP280;68291;49.602;8.722;2023-09-08T13:04:52;99613.19;;;31.72
78905;BMP280;68291;49.602;8.722;2023-09-08T13:07:32;99606.50;;;31.82
78905;BMP280;68291;49.602;8.722;2023-09-08T13:10:09;99602.47;;;32.18
78905;BMP280;68291;49.602;8.722;2023-09-08T13:12:50;99600.47;;;32.78
78905;BMP280;68291;49.602;8.722;2023-09-08T13:15:29;99603.19;;;33.47
78905;BMP280;68291;49.602;8.722;2023-09-08T13:18:32;99598.47;;;34.22
78905;BMP280;68291;49.602;8.722;2023-09-08T13:21:33;99595.63;;;34.96
78905;BMP280;68291;49.602;8.722;2023-09-08T13:24:07;99592.78;;;35.62
78905;BMP280;68291;49.602;8.722;2023-09-08T13:26:42;99589.00;;;36.17
78905;BMP280;68291;49.602;8.722;2023-09-08T13:29:32;99578.13;;;36.75
78905;BMP280;68291;49.602;8.722;2023-09-08T13:32:04;99578.22;;;37.14
78905;BMP280;68291;49.602;8.722;2023-09-08T13:34:41;99586.41;;;37.58
78905;BMP280;68291;49.602;8.722;2023-09-08T13:37:48;99578.75;;;37.89
78905;BMP280;68291;49.602;8.722;2023-09-08T13:40:59;99565.00;;;38.18
78905;BMP280;68291;49.602;8.722;2023-09-08T13:43:48;99568.94;;;38.43
78905;BMP280;68291;49.602;8.722;2023-09-08T13:47:26;99569.94;;;38.53
78905;BMP280;68291;49.602;8.722;2023-09-08T13:50:18;99562.56;;;38.65
78905;BMP280;68291;49.602;8.722;2023-09-08T13:53:07;99559.75;;;38.55
78905;BMP280;68291;49.602;8.722;2023-09-08T13:55:47;99553.44;;;38.66
78905;BMP280;68291;49.602;8.722;2023-09-08T13:58:53;99562.25;;;38.78
78905;BMP280;68291;49.602;8.722;2023-09-08T14:01:54;99558.56;;;38.84
78905;BMP280;68291;49.602;8.722;2023-09-08T14:05:15;99558.63;;;38.89
78905;BMP280;68291;49.602;8.722;2023-09-08T14:08:19;99562.13;;;39.06
78905;BMP280;68291;49.602;8.722;2023-09-08T14:11:09;99552.19;;;39.27
78905;BMP280;68291;49.602;8.722;2023-09-08T14:14:16;99556.41;;;39.61
78905;BMP280;68291;49.602;8.722;2023-09-08T14:17:02;99566.63;;;39.85
78905;BMP280;68291;49.602;8.722;2023-09-08T14:19:59;99548.59;;;39.90
78905;BMP280;68291;49.602;8.722;2023-09-08T14:23:14;99562.03;;;39.85
78905;BMP280;68291;49.602;8.722;2023-09-08T14:25:57;99552.06;;;39.86
78905;BMP280;68291;49.602;8.722;2023-09-08T14:28:54;99548.91;;;39.94
78905;BMP280;68291;49.602;8.722;2023-09-08T14:32:11;99547.72;;;40.06
78905;BMP280;68291;49.602;8.722;2023-09-08T14:35:07;99547.28;;;40.19
78905;BMP280;68291;49.602;8.722;2023-09-08T14:38:00;99546.94;;;40.42
78905;BMP280;68291;49.602;8.722;2023-09-08T14:41:00;99546.28;;;40.61
78905;BMP280;68291;49.602;8.722;2023-09-08T14:43:48;99545.69;;;40.90
78905;BMP280;68291;49.602;8.722;2023-09-08T14:46:57;99546.34;;;41.12
78905;BMP280;68291;49.602;8.722;2023-09-08T14:50:09;99550.72;;;41.18
78905;BMP280;68291;49.602;8.722;2023-09-08T14:53:12;99539.66;;;41.19
78905;BMP280;68291;49.602;8.722;2023-09-08T14:55:43;99532.28;;;41.15
78905;BMP280;68291;49.602;8.722;2023-09-08T14:58:47;99536.03;;;41.04
78905;BMP280;68291;49.602;8.722;2023-09-08T15:01:24;99534.59;;;40.86
78905;BMP280;68291;49.602;8.722;2023-09-08T15:04:40;99532.06;;;40.75
78905;BMP280;68291;49.602;8.722;2023-09-08T15:07:27;99528.63;;;40.80
78905;BMP280;68291;49.602;8.722;2023-09-08T15:10:13;99526.22;;;40.88
78905;BMP280;68291;49.602;8.722;2023-09-08T15:12:54;99530.63;;;41.04
78905;BMP280;68291;49.602;8.722;2023-09-08T15:15:40;99531.78;;;41.18
78905;BMP280;68291;49.602;8.722;2023-09-08T15:18:15;99529.13;;;41.22
78905;BMP280;68291;49.602;8.722;2023-09-08T15:21:15;99525.31;;;41.19
78905;BMP280;68291;49.602;8.722;2023-09-08T15:23:58;99538.78;;;41.14
78905;BMP280;68291;49.602;8.722;2023-09-08T15:27:10;99528.56;;;41.21
78905;BMP280;68291;49.602;8.722;2023-09-08T15:30:12;99527.22;;;41.18
78905;BMP280;68291;49.602;8.722;2023-09-08T15:32:56;99538.78;;;41.09
78905;BMP280;68291;49.602;8.722;2023-09-08T15:35:31;99543.31;;;40.98
78905;BMP280;68291;49.602;8.722;2023-09-08T15:38:17;99533.84;;;40.96
78905;BMP280;68291;49.602;8.722;2023-09-08T15:41:22;99523.78;;;40.86
78905;BMP280;68291;49.602;8.722;2023-09-08T15:44:10;99526.78;;;40.85
78905;BMP280;68291;49.602;8.722;2023-09-08T15:46:51;99527.53;;;40.81
78905;BMP280;68291;49.602;8.722;2023-09-08T15:49:31;99530.41;;;40.69
78905;BMP280;68291;49.602;8.722;2023-09-08T15:52:05;99524.66;;;40.56
78905;BMP280;68291;49.602;8.722;2023-09-08T15:55:01;99526.47;;;40.46
78905;BMP280;68291;49.602;8.722;2023-09-08T15:57:48;99527.00;;;40.43
78905;BMP280;68291;49.602;8.722;2023-09-08T16:00:26;99532.09;;;40.39
78905;BMP280;68291;49.602;8.722;2023-09-08T16:03:04;99532.47;;;40.21
78905;BMP280;68291;49.602;8.722;2023-09-08T16:05:59;99534.63;;;39.93
78905;BMP280;68291;49.602;8.722;2023-09-08T16:08:39;99533.34;;;39.75
78905;BMP280;68291;49.602;8.722;2023-09-08T16:11:40;99527.38;;;39.51
78905;BMP280;68291;49.602;8.722;2023-09-08T16:14:56;99524.59;;;39.42
78905;BMP280;68291;49.602;8.722;2023-09-08T16:17:53;99527.69;;;39.29
78905;BMP280;68291;49.602;8.722;2023-09-08T16:20:39;99521.88;;;39.15
78905;BMP280;68291;49.602;8.722;2023-09-08T16:23:29;99526.13;;;38.95
78905;BMP280;68291;49.602;8.722;2023-09-08T16:26:03;99523.50;;;38.79
78905;BMP280;68291;49.602;8.722;2023-09-08T16:28:45;99517.38;;;38.67
78905;BMP280;68291;49.602;8.722;2023-09-08T16:31:26;99511.19;;;38.50
78905;BMP280;68291;49.602;8.722;2023-09-08T16:34:24;99513.66;;;38.36
78905;BMP280;68291;49.602;8.722;2023-09-08T16:37:15;99525.22;;;38.20
78905;BMP280;68291;49.602;8.722;2023-09-08T16:40:23;99520.06;;;38.02
78905;BMP280;68291;49.602;8.722;2023-09-08T16:43:17;99524.69;;;37.90
78905;BMP280;68291;49.602;8.722;2023-09-08T16:46:23;99523.88;;;37.90
78905;BMP280;68291;49.602;8.722;2023-09-08T16:49:31;99523.88;;;37.90
78905;BMP280;68291;49.602;8.722;2023-09-08T16:52:48;99539.09;;;37.57
78905;BMP280;68291;49.602;8.722;2023-09-08T16:55:54;99531.75;;;36.91